Merry Hill, North Carolina
Current Conditions -  °F | °C
As of 3:15 PM on Sunday 25 Jan 2015 (Local Time) from KASJ Reporting Station
Clear Clear  
Wind Chill: 52°   Ceiling: Unl
Heat Index: 52°   Visibility: 10mi
Dew Point: 33°   Wind: 3mph
Humidity: 48%   Direction: 190°S
Pressure: 29.88"   Gusts: NA
Location:  36.2°N, 77.06°W
Report Text: KASJ 252015Z AUTO 19003KT 10SM CLR 11/00 A2988 RMK AO2 T01090003
Loading
Personal Weather Stations






























Interactive Weather Map New forecast layout! Learn more

10-Day Weather Forecast

Advertisements
Track Severe Weather on mobile